Time;durP1;ratioP1;P1;durP2;ratioP2;P2;SDS_P1;SDS_P2;PMS_P1;PMS_P2;Temp;Humidity;BMP_temperature;BMP_pressure;BME280_temperature;BME280_humidity;BME280_pressure;Samples;Min_cycle;Max_cycle;Signal;HPM_P1;HPM_P2
2023/09/29 00:01:06;;;;;;;13.52;4.97;;;;;;;18.42;84.42;101462.41;5095028;28;20093;-62
2023/09/29 00:03:32;;;;;;;16.30;4.80;;;;;;;18.35;85.10;101460.69;5096812;28;20036;-61
2023/09/29 00:05:58;;;;;;;11.93;4.65;;;;;;;18.38;85.07;101455.31;5096784;28;20470;-61
2023/09/29 00:08:23;;;;;;;14.63;4.75;;;;;;;18.40;84.62;101461.53;5096888;28;20032;-61
2023/09/29 00:10:50;;;;;;;10.93;4.68;;;;;;;18.43;84.91;101455.28;5095377;28;20059;-61
2023/09/29 00:13:16;;;;;;;15.80;4.78;;;;;;;18.33;85.74;101454.50;5096634;28;20028;-61
2023/09/29 00:15:42;;;;;;;14.45;4.63;;;;;;;18.34;85.50;101460.72;5096716;28;20077;-62
2023/09/29 00:18:08;;;;;;;12.52;4.50;;;;;;;18.29;86.07;101463.47;5096651;28;20107;-60
2023/09/29 00:20:36;;;;;;;14.00;4.95;;;;;;;18.15;86.50;101460.03;5096528;28;20485;-62
2023/09/29 00:23:02;;;;;;;13.68;4.70;;;;;;;18.19;86.58;101456.41;5096364;28;20024;-61
2023/09/29 00:25:28;;;;;;;10.93;4.65;;;;;;;18.09;87.14;101458.31;5096442;28;20020;-61
2023/09/29 00:27:55;;;;;;;15.63;5.00;;;;;;;18.08;87.56;101455.66;5096415;28;20027;-61
2023/09/29 00:30:21;;;;;;;15.90;4.90;;;;;;;17.98;87.97;101450.38;5096226;28;20020;-61
2023/09/29 00:32:48;;;;;;;13.80;4.75;;;;;;;17.96;88.83;101452.22;5096255;28;20381;-61
2023/09/29 00:35:24;;;;;;;11.15;4.80;;;;;;;17.87;89.27;101456.78;5095874;28;20123;-61
2023/09/29 00:37:59;;;;;;;13.57;4.85;;;;;;;17.88;89.58;101453.19;5096474;28;20059;-61
2023/09/29 00:40:25;;;;;;;15.43;4.85;;;;;;;17.98;89.11;101454.84;5096102;28;20032;-61
2023/09/29 00:42:52;;;;;;;16.25;4.78;;;;;;;18.01;88.93;101453.03;5096028;28;20035;-61
2023/09/29 00:45:26;;;;;;;12.43;4.38;;;;;;;18.08;88.02;101442.31;5094642;28;20478;-63
2023/09/29 00:47:55;;;;;;;12.27;4.88;;;;;;;18.08;88.82;101448.53;5096061;28;20413;-61
2023/09/29 00:50:23;;;;;;;15.85;4.93;;;;;;;18.07;89.05;101446.72;5095901;28;20020;-60
2023/09/29 00:52:50;;;;;;;11.05;4.47;;;;;;;18.07;88.62;101441.38;5095917;28;20028;-61
2023/09/29 00:55:22;;;;;;;13.27;4.82;;;;;;;18.12;88.91;101438.69;5095800;28;20020;-61
2023/09/29 00:57:48;;;;;;;9.82;4.60;;;;;;;18.12;89.24;101430.66;5096060;28;20036;-61
2023/09/29 01:02:58;;;;;;;12.30;4.40;;;;;;;18.15;88.56;101436.84;5095959;28;20050;-61
2023/09/29 01:05:23;;;;;;;12.05;4.68;;;;;;;18.16;88.41;101440.44;5095653;28;20081;-62
2023/09/29 01:07:51;;;;;;;11.95;4.85;;;;;;;18.13;88.69;101443.13;5095577;28;20466;-60
2023/09/29 01:10:17;;;;;;;12.70;4.90;;;;;;;18.09;89.45;101428.00;5095423;28;20043;-62
2023/09/29 01:12:43;;;;;;;10.95;4.40;;;;;;;18.19;88.41;101437.69;5094647;28;20097;-61
2023/09/29 01:15:14;;;;;;;11.40;4.40;;;;;;;18.19;88.26;101425.22;5095304;28;20386;-61
2023/09/29 01:17:43;;;;;;;9.45;4.40;;;;;;;18.27;87.34;101422.44;5094163;28;20103;-62
2023/09/29 01:20:27;;;;;;;12.13;4.32;;;;;;;18.26;88.24;101424.25;5095630;28;20024;-61
2023/09/29 01:22:53;;;;;;;12.80;4.03;;;;;;;18.31;87.95;101418.84;5095186;28;20389;-62
2023/09/29 01:25:20;;;;;;;8.02;4.20;;;;;;;18.34;87.46;101417.94;5095258;28;20027;-61
2023/09/29 01:27:46;;;;;;;11.52;4.15;;;;;;;18.37;87.64;101409.84;5095394;28;20032;-61
2023/09/29 01:30:16;;;;;;;9.15;4.10;;;;;;;18.32;87.95;101412.56;5095255;28;20501;-60
2023/09/29 01:32:43;;;;;;;9.18;4.20;;;;;;;18.32;87.60;101409.91;5095440;28;20028;-61
2023/09/29 01:35:10;;;;;;;9.18;3.90;;;;;;;18.31;87.57;101410.81;5094763;28;20044;-62
2023/09/29 01:37:36;;;;;;;7.28;4.05;;;;;;;18.35;86.80;101407.19;5093709;28;20104;-60
2023/09/29 01:40:02;;;;;;;9.05;3.63;;;;;;;18.27;87.22;101396.56;5095214;28;20107;-61
2023/09/29 01:42:27;;;;;;;9.00;3.70;;;;;;;18.25;86.77;101393.06;5095028;28;20453;-61
2023/09/29 01:44:52;;;;;;;9.73;4.00;;;;;;;18.15;88.34;101390.50;5094938;28;20024;-60
2023/09/29 01:47:18;;;;;;;9.20;3.80;;;;;;;18.06;88.50;101386.13;5094857;28;20035;-61
2023/09/29 01:49:43;;;;;;;8.73;3.92;;;;;;;18.07;88.74;101381.66;5095087;28;20146;-61
2023/09/29 01:52:08;;;;;;;9.20;4.20;;;;;;;17.96;89.87;101387.16;5094681;28;20477;-60
2023/09/29 01:54:35;;;;;;;9.30;3.85;;;;;;;17.89;89.97;101390.78;5093353;28;20024;-61
2023/09/29 01:57:01;;;;;;;7.13;4.20;;;;;;;17.78;90.78;101374.88;5094839;28;20048;-60
2023/09/29 01:59:29;;;;;;;10.88;4.15;;;;;;;17.79;90.40;101371.28;5094732;28;20425;-61
2023/09/29 02:01:55;;;;;;;8.95;3.90;;;;;;;17.73;90.63;101377.56;5094669;28;20115;-61
2023/09/29 02:04:20;;;;;;;8.82;3.70;;;;;;;17.72;90.43;101374.88;5094640;28;20420;-59
2023/09/29 02:06:45;;;;;;;8.75;3.90;;;;;;;17.68;90.49;101375.81;5094224;28;20145;-62
2023/09/29 02:09:11;;;;;;;10.77;3.65;;;;;;;17.67;90.35;101374.06;5094271;28;20107;-60
2023/09/29 02:11:39;;;;;;;7.80;3.85;;;;;;;17.69;90.21;101356.22;5094119;28;20077;-61
2023/09/29 02:14:05;;;;;;;9.10;3.80;;;;;;;17.73;89.75;101361.53;5094370;28;20036;-59
2023/09/29 02:16:31;;;;;;;7.22;3.50;;;;;;;17.76;89.37;101358.81;5094277;28;20081;-60
2023/09/29 02:18:56;;;;;;;9.45;3.72;;;;;;;17.75;89.24;101366.88;5092757;28;20036;-61
2023/09/29 02:21:22;;;;;;;9.55;3.50;;;;;;;17.70;89.21;101358.88;5094016;28;20024;-61
2023/09/29 02:23:48;;;;;;;5.63;3.40;;;;;;;17.72;88.72;101370.41;5093243;28;20059;-60
2023/09/29 02:26:17;;;;;;;7.13;3.40;;;;;;;17.74;88.81;101363.31;5094213;28;20016;-61
2023/09/29 02:28:42;;;;;;;9.57;3.55;;;;;;;17.79;88.34;101362.38;5093942;28;20020;-60
2023/09/29 02:31:12;;;;;;;9.35;3.30;;;;;;;17.75;88.51;101358.84;5093909;28;20034;-62
2023/09/29 02:33:39;;;;;;;8.93;3.20;;;;;;;17.81;87.85;101353.44;5093817;28;20126;-62
2023/09/29 02:36:04;;;;;;;8.85;3.45;;;;;;;17.82;87.74;101352.56;5093427;28;20079;-60
2023/09/29 02:38:30;;;;;;;10.85;3.50;;;;;;;17.82;86.76;101349.00;5093833;28;20117;-61
2023/09/29 02:40:56;;;;;;;10.77;3.58;;;;;;;17.83;87.25;101346.28;5093548;28;20036;-61
2023/09/29 02:43:21;;;;;;;10.68;3.58;;;;;;;17.84;87.22;101350.72;5093774;28;20030;-61
2023/09/29 02:45:47;;;;;;;5.80;3.20;;;;;;;17.90;87.01;101333.72;5093508;28;20484;-62
2023/09/29 02:48:13;;;;;;;8.50;3.47;;;;;;;17.90;86.85;101334.63;5093657;28;20107;-61
2023/09/29 02:50:38;;;;;;;7.85;3.50;;;;;;;17.98;86.70;101324.69;5093806;28;20024;-61
2023/09/29 02:53:04;;;;;;;8.23;3.20;;;;;;;18.00;86.48;101327.38;5093591;28;20115;-61
2023/09/29 02:55:29;;;;;;;7.55;2.90;;;;;;;18.04;86.97;101326.44;5093444;28;20039;-61
2023/09/29 02:57:54;;;;;;;7.72;3.40;;;;;;;18.06;86.26;101335.31;5093410;28;20036;-61
2023/09/29 03:00:23;;;;;;;8.45;3.05;;;;;;;18.07;86.32;101331.72;5093342;28;20024;-60
2023/09/29 03:02:49;;;;;;;7.32;2.92;;;;;;;18.10;85.75;101321.00;5093197;28;20040;-61
2023/09/29 03:05:15;;;;;;;5.72;2.90;;;;;;;18.14;86.50;101317.38;5092997;28;20020;-61
2023/09/29 03:07:41;;;;;;;9.75;3.40;;;;;;;18.15;86.91;101312.91;5093345;28;20030;-61
2023/09/29 03:10:07;;;;;;;7.75;3.40;;;;;;;18.14;87.17;101317.38;5093482;28;20415;-61
2023/09/29 03:12:33;;;;;;;7.63;3.33;;;;;;;18.14;87.39;101312.03;5093301;28;20059;-61
2023/09/29 03:14:58;;;;;;;7.93;3.35;;;;;;;18.11;87.79;101316.53;5092999;28;20105;-61
2023/09/29 03:17:23;;;;;;;7.63;3.33;;;;;;;18.09;88.08;101308.53;5093321;28;20042;-61
2023/09/29 03:19:49;;;;;;;5.55;3.00;;;;;;;18.10;88.06;101310.31;5093104;28;20030;-61
2023/09/29 03:22:14;;;;;;;9.10;3.50;;;;;;;18.07;88.89;101310.34;5093085;28;20031;-61
2023/09/29 03:24:40;;;;;;;6.30;3.35;;;;;;;18.02;89.05;101309.50;5093097;28;20497;-61
2023/09/29 03:27:05;;;;;;;5.82;3.15;;;;;;;18.01;88.86;101311.31;5093132;28;20032;-61
2023/09/29 03:29:31;;;;;;;6.05;3.28;;;;;;;18.04;89.11;101302.38;5092934;28;20028;-61
2023/09/29 03:31:56;;;;;;;8.00;3.08;;;;;;;18.04;89.21;101301.50;5093006;28;20035;-61
2023/09/29 03:34:23;;;;;;;6.43;3.10;;;;;;;18.00;89.58;101292.63;5092601;28;20075;-61
2023/09/29 03:36:50;;;;;;;8.07;3.42;;;;;;;18.02;89.41;101291.69;5075130;28;20036;-62
2023/09/29 03:39:17;;;;;;;6.88;3.42;;;;;;;18.02;90.16;101282.78;5092902;28;20041;-61
2023/09/29 03:41:43;;;;;;;6.18;3.30;;;;;;;18.01;90.30;101284.56;5092872;28;20029;-61
2023/09/29 03:44:09;;;;;;;7.72;3.55;;;;;;;18.03;90.83;101279.22;5092722;28;20073;-61
2023/09/29 03:46:34;;;;;;;9.90;3.55;;;;;;;18.02;91.31;101270.28;5092776;28;20024;-61
2023/09/29 03:48:59;;;;;;;10.10;3.58;;;;;;;17.99;91.38;101256.97;5092822;28;20103;-60
2023/09/29 03:51:26;;;;;;;6.38;3.60;;;;;;;17.86;92.13;101263.38;5092885;28;20085;-61
2023/09/29 03:53:55;;;;;;;7.55;3.42;;;;;;;17.85;92.64;101255.38;5092778;28;20029;-62
2023/09/29 03:56:23;;;;;;;6.10;3.20;;;;;;;17.82;92.71;101258.97;5092837;28;20032;-61
2023/09/29 03:58:50;;;;;;;5.90;3.45;;;;;;;17.82;93.43;101253.63;5092708;28;20048;-60
2023/09/29 04:01:16;;;;;;;10.52;3.60;;;;;;;17.82;93.34;101260.78;5092637;28;20028;-60
2023/09/29 04:03:42;;;;;;;6.47;3.28;;;;;;;17.80;93.97;101259.91;5092746;28;20027;-60
2023/09/29 04:06:08;;;;;;;8.63;3.38;;;;;;;17.74;93.84;101253.72;5092822;28;20024;-61
2023/09/29 04:08:33;;;;;;;6.50;3.53;;;;;;;17.76;94.08;101253.69;5091745;28;20059;-61
2023/09/29 04:10:59;;;;;;;7.03;3.33;;;;;;;17.72;94.75;101246.59;5092626;28;20024;-61
2023/09/29 04:13:24;;;;;;;7.15;3.47;;;;;;;17.73;94.81;101240.34;5092665;28;20028;-61
2023/09/29 04:15:51;;;;;;;8.13;3.60;;;;;;;17.73;95.27;101243.03;5092725;28;20033;-61
2023/09/29 04:18:16;;;;;;;8.10;3.50;;;;;;;17.73;95.11;101253.72;5092849;28;20070;-61
2023/09/29 04:20:42;;;;;;;7.55;3.65;;;;;;;17.66;95.44;101255.56;5092450;28;20025;-61
2023/09/29 04:23:07;;;;;;;6.95;3.20;;;;;;;17.73;95.60;101251.94;5092428;28;20093;-61
2023/09/29 04:25:33;;;;;;;9.07;3.50;;;;;;;17.76;95.45;101251.91;5092670;28;20024;-61
2023/09/29 04:27:58;;;;;;;9.55;3.90;;;;;;;17.70;96.22;101249.28;5092423;28;20097;-60
2023/09/29 04:30:24;;;;;;;6.43;3.30;;;;;;;17.69;96.31;101238.63;5092710;28;20039;-60
2023/09/29 04:32:49;;;;;;;5.75;3.22;;;;;;;17.69;96.40;101225.25;5092470;28;20521;-60
2023/09/29 04:35:15;;;;;;;7.07;3.50;;;;;;;17.70;96.69;101222.56;5092100;28;20502;-61
2023/09/29 04:37:41;;;;;;;10.77;3.90;;;;;;;17.67;97.62;101235.94;5092644;28;20027;-61
2023/09/29 04:40:07;;;;;;;6.22;3.58;;;;;;;17.67;97.53;101238.63;5092333;28;20551;-60
2023/09/29 04:42:34;;;;;;;6.18;3.72;;;;;;;17.66;98.22;101239.53;5092286;28;20069;-61
2023/09/29 04:44:59;;;;;;;11.23;3.60;;;;;;;17.56;98.13;101213.84;5091140;28;20486;-61
2023/09/29 04:47:25;;;;;;;8.18;3.53;;;;;;;17.72;97.89;101226.06;5093464;28;20052;-61
2023/09/29 04:49:50;;;;;;;8.45;3.53;;;;;;;17.73;98.07;101211.84;5095904;28;20111;-61
2023/09/29 04:52:16;;;;;;;5.47;3.42;;;;;;;17.75;98.31;101222.53;5095860;28;20028;-61
2023/09/29 04:54:43;;;;;;;8.20;3.75;;;;;;;17.72;98.74;101227.88;5095693;28;20103;-61
2023/09/29 04:57:09;;;;;;;6.53;3.25;;;;;;;17.71;99.34;101226.09;5094582;28;20494;-61
2023/09/29 04:59:34;;;;;;;7.38;3.55;;;;;;;17.75;98.82;101228.75;5095903;28;20028;-61
2023/09/29 05:02:00;;;;;;;5.97;3.72;;;;;;;17.74;98.81;101240.34;5095548;28;20472;-61
2023/09/29 05:04:25;;;;;;;5.45;3.70;;;;;;;17.75;99.11;101225.19;5095890;28;20088;-61
2023/09/29 05:06:52;;;;;;;9.95;3.50;;;;;;;17.72;99.53;101228.75;5094059;28;20020;-60
2023/09/29 05:09:18;;;;;;;9.73;3.75;;;;;;;17.76;99.51;101221.63;5095696;28;20420;-61
2023/09/29 05:11:43;;;;;;;5.22;3.30;;;;;;;17.77;99.22;101224.28;5095435;28;20043;-62
2023/09/29 05:14:09;;;;;;;7.07;3.47;;;;;;;17.79;99.51;101212.69;5095242;28;20024;-60
2023/09/29 05:16:34;;;;;;;9.93;3.88;;;;;;;17.82;99.22;101218.00;5095497;28;20024;-61
2023/09/29 05:19:01;;;;;;;8.57;3.55;;;;;;;17.86;99.28;101209.00;5095345;28;20020;-61
2023/09/29 05:21:27;;;;;;;6.70;3.55;;;;;;;17.87;99.48;101202.78;5095239;28;20393;-62
2023/09/29 05:23:52;;;;;;;9.63;3.50;;;;;;;17.86;99.67;101199.22;5095302;28;20481;-61
2023/09/29 05:26:18;;;;;;;6.97;3.58;;;;;;;17.89;99.46;101207.19;5095312;28;20028;-61
2023/09/29 05:28:43;;;;;;;8.32;3.30;;;;;;;17.90;99.92;101200.03;5095214;28;20111;-61
2023/09/29 05:31:09;;;;;;;8.35;3.65;;;;;;;17.88;99.71;101197.41;5095145;28;20168;-60
2023/09/29 05:33:35;;;;;;;5.68;3.20;;;;;;;17.88;100.00;101199.19;5095176;28;20032;-61
2023/09/29 05:36:00;;;;;;;5.32;3.60;;;;;;;17.83;100.00;101193.91;5094823;28;20052;-60
2023/09/29 05:38:26;;;;;;;6.68;3.35;;;;;;;17.83;100.00;101199.25;5094992;28;20040;-61
2023/09/29 05:40:52;;;;;;;8.20;3.40;;;;;;;17.85;100.00;101200.09;5095031;28;20355;-61
2023/09/29 05:43:18;;;;;;;7.97;3.35;;;;;;;17.90;100.00;101200.03;5095104;28;20027;-61
2023/09/29 05:45:47;;;;;;;6.68;3.25;;;;;;;17.94;100.00;101204.44;5094847;28;20118;-60
2023/09/29 05:48:13;;;;;;;7.50;3.40;;;;;;;17.97;100.00;101215.09;5094611;28;20120;-61
2023/09/29 05:50:38;;;;;;;7.85;3.33;;;;;;;17.96;100.00;101205.31;5094546;28;20103;-61
2023/09/29 05:53:04;;;;;;;7.32;3.40;;;;;;;17.99;100.00;101205.28;5094403;28;20028;-61
2023/09/29 05:55:30;;;;;;;6.78;3.60;;;;;;;18.01;100.00;101208.81;5094285;28;20364;-61
2023/09/29 05:57:56;;;;;;;6.82;3.28;;;;;;;18.00;100.00;101207.94;5093846;28;20024;-61
2023/09/29 06:00:22;;;;;;;6.90;3.45;;;;;;;17.99;100.00;101214.19;5093792;28;20439;-61
2023/09/29 06:02:47;;;;;;;5.03;3.40;;;;;;;17.99;100.00;101202.63;5094048;28;20036;-61
2023/09/29 06:05:13;;;;;;;5.85;3.50;;;;;;;18.03;100.00;101204.34;5093708;28;20482;-61
2023/09/29 06:07:39;;;;;;;6.88;3.40;;;;;;;18.02;100.00;101208.78;5093760;28;20058;-61
2023/09/29 06:10:06;;;;;;;5.00;3.35;;;;;;;18.02;100.00;101208.78;5093929;28;20036;-61
2023/09/29 06:12:32;;;;;;;8.20;3.50;;;;;;;18.03;100.00;101209.69;5093643;28;20021;-61
2023/09/29 06:14:58;;;;;;;5.15;3.08;;;;;;;18.04;100.00;101203.44;5093715;28;20020;-61
2023/09/29 06:17:23;;;;;;;7.32;3.30;;;;;;;18.05;100.00;101217.69;5093680;28;20370;-61
2023/09/29 06:19:50;;;;;;;6.68;3.45;;;;;;;18.07;100.00;101231.91;5094273;28;20028;-61
2023/09/29 06:22:15;;;;;;;6.63;3.58;;;;;;;18.11;100.00;101231.84;5091960;28;20017;-61
2023/09/29 06:24:44;;;;;;;7.63;3.50;;;;;;;18.14;100.00;101222.91;5092465;28;20024;-61
2023/09/29 06:27:12;;;;;;;6.00;3.42;;;;;;;18.19;100.00;101226.38;5092292;28;20143;-61
2023/09/29 06:29:41;;;;;;;9.13;3.80;;;;;;;18.24;100.00;101216.50;5092303;28;20032;-61
2023/09/29 06:32:08;;;;;;;8.25;3.70;;;;;;;18.27;100.00;101211.97;5092498;28;20123;-61
2023/09/29 06:34:34;;;;;;;6.47;3.33;;;;;;;18.32;100.00;101209.22;5091767;28;20051;-61
2023/09/29 06:37:00;;;;;;;9.70;3.35;;;;;;;18.34;100.00;101226.16;5093095;28;20020;-61
2023/09/29 06:39:26;;;;;;;7.75;3.30;;;;;;;18.39;100.00;101216.28;5091823;28;20028;-61
2023/09/29 06:41:51;;;;;;;6.40;3.38;;;;;;;18.42;100.00;101223.38;5093221;28;20055;-60
2023/09/29 06:44:17;;;;;;;7.20;3.33;;;;;;;18.45;100.00;101223.31;5093372;28;20488;-60
2023/09/29 06:46:43;;;;;;;6.53;3.10;;;;;;;18.53;100.00;101226.75;5093027;28;20020;-61
2023/09/29 06:49:08;;;;;;;10.93;3.10;;;;;;;18.56;100.00;101224.03;5093303;28;20013;-61
2023/09/29 06:51:34;;;;;;;8.43;2.85;;;;;;;18.62;100.00;101229.28;5093179;28;20523;-60
2023/09/29 06:54:00;;;;;;;6.43;3.03;;;;;;;18.67;100.00;101230.09;5092982;28;20028;-61
2023/09/29 06:56:25;;;;;;;5.88;3.22;;;;;;;18.73;100.00;101235.38;5092905;28;20024;-61
2023/09/29 06:58:51;;;;;;;7.72;3.20;;;;;;;18.78;100.00;101237.97;5093159;28;20062;-61
2023/09/29 07:01:16;;;;;;;6.47;3.20;;;;;;;18.82;100.00;101233.47;5093022;28;20024;-62
2023/09/29 07:03:42;;;;;;;9.05;3.13;;;;;;;18.85;100.00;101242.31;5092760;28;20123;-61
2023/09/29 07:06:08;;;;;;;7.75;2.88;;;;;;;18.90;100.00;101242.25;5092866;28;20034;-61
2023/09/29 07:08:33;;;;;;;8.85;3.22;;;;;;;18.94;100.00;101243.97;5093059;28;20032;-61
2023/09/29 07:10:58;;;;;;;6.07;2.95;;;;;;;18.98;100.00;101245.69;5092304;28;20043;-62
2023/09/29 07:13:24;;;;;;;9.48;3.45;;;;;;;19.00;100.00;101236.69;5091488;28;20484;-62
2023/09/29 07:15:49;;;;;;;7.70;3.20;;;;;;;19.03;100.00;101246.47;5092852;28;20103;-61
2023/09/29 07:18:16;;;;;;;5.05;2.97;;;;;;;19.07;100.00;101248.19;5091338;28;20151;-61
2023/09/29 07:20:45;;;;;;;7.00;3.10;;;;;;;19.10;100.00;101236.50;5092602;28;20028;-62
2023/09/29 07:23:10;;;;;;;7.03;3.30;;;;;;;19.13;100.00;101242.72;5092489;28;20028;-62
2023/09/29 07:25:37;;;;;;;5.13;3.03;;;;;;;19.19;100.00;101245.28;5092522;28;20027;-61
2023/09/29 07:28:04;;;;;;;9.27;3.25;;;;;;;19.24;100.00;101243.41;5092573;28;20115;-61
2023/09/29 07:30:30;;;;;;;6.03;3.00;;;;;;;19.34;99.18;101251.25;5092504;28;20469;-61
2023/09/29 07:32:55;;;;;;;7.13;3.10;;;;;;;19.48;98.00;101246.50;5092561;28;20109;-60
2023/09/29 07:35:21;;;;;;;5.78;2.90;;;;;;;19.62;97.60;101249.84;5092379;28;20491;-60
2023/09/29 07:37:46;;;;;;;6.07;2.88;;;;;;;19.79;96.73;101245.94;5091127;28;20034;-61
2023/09/29 07:40:12;;;;;;;6.97;2.78;;;;;;;19.97;95.67;101249.13;5092474;28;20024;-61
2023/09/29 07:42:37;;;;;;;5.53;3.10;;;;;;;20.17;94.34;101246.00;5091089;28;20105;-61
2023/09/29 07:45:04;;;;;;;5.55;2.65;;;;;;;20.35;92.38;101251.88;5092297;28;20020;-61
2023/09/29 07:47:29;;;;;;;6.63;3.25;;;;;;;20.40;92.49;101245.47;5092414;28;20329;-61
2023/09/29 07:49:55;;;;;;;10.40;3.08;;;;;;;20.52;91.81;101249.69;5092588;28;20111;-62
2023/09/29 07:52:27;;;;;;;8.02;3.05;;;;;;;20.63;91.40;101252.09;5092321;28;20028;-61
2023/09/29 07:54:53;;;;;;;7.43;3.30;;;;;;;20.80;90.25;101254.38;5091090;28;20062;-61
2023/09/29 07:57:18;;;;;;;10.48;3.20;;;;;;;21.07;90.13;101255.47;5092463;28;20029;-61
2023/09/29 07:59:44;;;;;;;6.57;3.15;;;;;;;21.35;88.49;101248.47;5092624;28;20028;-62
2023/09/29 08:02:10;;;;;;;7.53;3.17;;;;;;;21.56;86.71;101265.81;5092293;28;20355;-61
2023/09/29 08:04:35;;;;;;;8.63;3.20;;;;;;;21.73;85.83;101252.78;5092259;28;20546;-62
2023/09/29 08:07:01;;;;;;;6.78;3.00;;;;;;;21.81;84.31;101260.63;5092227;28;20024;-61
2023/09/29 08:09:26;;;;;;;6.97;2.88;;;;;;;21.84;83.35;101271.31;5092228;28;20043;-61
2023/09/29 08:11:51;;;;;;;7.10;3.00;;;;;;;21.93;83.00;101267.47;5090998;28;20028;-61
2023/09/29 08:14:17;;;;;;;6.20;2.70;;;;;;;22.02;82.34;101264.50;5092512;28;20028;-61
2023/09/29 08:16:42;;;;;;;4.85;2.83;;;;;;;22.19;81.33;101275.66;5090880;28;20021;-62
2023/09/29 08:19:08;;;;;;;6.07;2.70;;;;;;;22.25;81.55;101274.59;5092070;28;20028;-62
2023/09/29 08:21:33;;;;;;;8.00;2.80;;;;;;;22.18;80.59;101273.91;5093708;28;20062;-63
2023/09/29 08:24:03;;;;;;;6.07;2.80;;;;;;;22.26;81.23;101281.72;5096046;28;20031;-63
2023/09/29 08:26:30;;;;;;;3.97;2.65;;;;;;;22.34;81.01;101287.75;5095926;28;20024;-62
2023/09/29 08:28:57;;;;;;;6.43;2.90;;;;;;;22.44;80.29;101285.66;5095997;28;20101;-61
2023/09/29 08:31:23;;;;;;;6.32;2.70;;;;;;;22.44;80.11;101294.63;5095787;28;20028;-61
2023/09/29 08:33:48;;;;;;;6.32;2.90;;;;;;;22.48;80.53;101299.00;5095671;28;20031;-61
2023/09/29 08:36:13;;;;;;;6.85;3.00;;;;;;;22.61;80.88;101295.88;5095515;28;20055;-61
2023/09/29 08:38:39;;;;;;;5.20;2.78;;;;;;;22.68;78.70;101308.25;5095859;28;20039;-61
2023/09/29 08:41:04;;;;;;;6.47;2.78;;;;;;;22.64;78.93;101301.19;5095486;28;20055;-62
2023/09/29 08:43:31;;;;;;;7.95;2.90;;;;;;;22.56;79.29;101298.72;5095914;28;20028;-62
2023/09/29 08:45:58;;;;;;;6.57;2.72;;;;;;;22.66;79.32;101308.31;5095389;28;20039;-62
2023/09/29 08:48:27;;;;;;;8.75;2.90;;;;;;;22.66;78.70;101311.00;5095436;28;20486;-62
2023/09/29 08:50:55;;;;;;;5.60;2.92;;;;;;;22.68;79.32;101311.81;5095408;28;20052;-62
2023/09/29 08:53:24;;;;;;;7.18;3.10;;;;;;;22.63;78.12;101313.78;5095616;28;20039;-62
2023/09/29 08:55:52;;;;;;;5.78;2.83;;;;;;;22.58;78.42;101318.44;5095330;28;20028;-61
2023/09/29 08:58:19;;;;;;;7.82;3.15;;;;;;;22.58;78.49;101320.25;5095424;28;20512;-61
2023/09/29 09:00:44;;;;;;;8.57;3.05;;;;;;;22.46;78.56;101316.13;5095435;28;20032;-62
2023/09/29 09:03:10;;;;;;;9.43;3.20;;;;;;;22.42;78.98;101318.03;5094978;28;20035;-62
2023/09/29 09:05:35;;;;;;;7.35;3.40;;;;;;;22.54;78.67;101318.59;5095258;28;20024;-61
2023/09/29 09:08:01;;;;;;;6.25;3.33;;;;;;;22.69;77.85;101336.94;5095143;28;20066;-61
2023/09/29 09:10:34;;;;;;;6.38;3.10;;;;;;;22.72;77.97;101324.25;5093903;28;20461;-61
2023/09/29 09:13:01;;;;;;;10.27;3.10;;;;;;;22.57;78.00;101332.84;5095197;28;20512;-61
2023/09/29 09:15:27;;;;;;;10.60;3.30;;;;;;;22.42;78.56;101325.22;5094892;28;20520;-60
2023/09/29 09:17:53;;;;;;;7.10;3.22;;;;;;;22.31;79.09;101321.97;5094969;28;20047;-61
2023/09/29 09:20:19;;;;;;;11.80;3.47;;;;;;;22.31;79.56;101333.66;5095163;28;20058;-61
2023/09/29 09:23:01;;;;;;;8.65;3.40;;;;;;;22.35;79.37;101335.28;5095016;28;20027;-61
2023/09/29 09:25:35;;;;;;;6.50;3.45;;;;;;;22.34;79.45;101332.66;5095229;28;20049;-61
2023/09/29 09:28:04;;;;;;;9.70;3.50;;;;;;;22.37;81.13;101340.66;5094816;28;20385;-61
2023/09/29 09:30:35;;;;;;;7.72;3.08;;;;;;;22.25;82.27;101344.59;5094936;28;20020;-61
2023/09/29 09:33:02;;;;;;;6.18;3.40;;;;;;;22.02;83.57;101352.44;5094198;28;20060;-61
2023/09/29 09:35:28;;;;;;;8.43;3.10;;;;;;;21.82;84.06;101347.59;5092968;28;20067;-62
2023/09/29 09:37:55;;;;;;;6.55;3.22;;;;;;;21.75;83.87;101353.16;5094624;28;20024;-61
2023/09/29 09:40:24;;;;;;;9.85;3.50;;;;;;;21.71;84.59;101359.53;5094655;28;20132;-61
2023/09/29 09:42:53;;;;;;;9.10;3.28;;;;;;;21.73;84.57;101360.38;5094375;28;20040;-62
2023/09/29 09:45:19;;;;;;;9.02;3.28;;;;;;;21.74;83.37;101356.75;5094507;28;20028;-60
2023/09/29 09:47:46;;;;;;;7.38;3.20;;;;;;;21.75;83.60;101360.31;5094508;28;20107;-61
2023/09/29 09:50:14;;;;;;;7.07;3.20;;;;;;;21.74;83.37;101362.13;5094563;28;20023;-61
2023/09/29 09:52:43;;;;;;;9.23;3.30;;;;;;;21.68;83.75;101362.31;5094597;28;20071;-61
2023/09/29 09:55:15;;;;;;;7.25;3.20;;;;;;;21.70;83.64;101370.31;5094459;28;20032;-62
2023/09/29 09:57:50;;;;;;;8.05;3.22;;;;;;;21.70;83.80;101363.13;5094470;28;20031;-60
2023/09/29 10:00:15;;;;;;;7.78;3.28;;;;;;;21.71;83.13;101372.09;5094066;28;20024;-61
2023/09/29 10:02:51;;;;;;;7.50;3.20;;;;;;;21.70;82.99;101367.63;5094191;28;20103;-60
2023/09/29 10:05:22;;;;;;;7.20;3.10;;;;;;;21.64;82.56;101378.56;5094256;28;20028;-61
2023/09/29 10:07:53;;;;;;;6.22;3.30;;;;;;;21.66;83.34;101382.97;5093794;28;20378;-63
2023/09/29 10:10:36;;;;;;;9.00;3.55;;;;;;;21.68;83.90;101386.53;5093784;28;20414;-62
2023/09/29 10:13:05;;;;;;;8.15;3.70;;;;;;;21.70;84.04;101391.84;5093616;28;20024;-61
2023/09/29 10:15:32;;;;;;;7.68;3.55;;;;;;;21.61;84.17;101381.34;5093913;28;20465;-61
2023/09/29 10:18:15;;;;;;;7.35;3.28;;;;;;;21.62;84.65;101383.97;5093992;28;20067;-62
2023/09/29 10:20:41;;;;;;;7.35;3.33;;;;;;;21.59;84.73;101393.97;5093843;28;20135;-62
2023/09/29 10:23:13;;;;;;;9.27;3.30;;;;;;;21.50;85.18;101387.91;5093475;28;20139;-60
2023/09/29 10:25:40;;;;;;;6.82;3.40;;;;;;;21.51;84.98;101383.41;5093970;28;20180;-62
2023/09/29 10:28:07;;;;;;;9.70;3.30;;;;;;;21.49;85.30;101387.91;5093565;28;20028;-61
2023/09/29 10:30:33;;;;;;;7.07;2.95;;;;;;;21.50;85.27;101390.59;5093619;28;20028;-61
2023/09/29 10:33:17;;;;;;;6.70;3.47;;;;;;;21.55;84.96;101390.47;5093382;28;20039;-61
2023/09/29 10:35:47;;;;;;;8.02;3.03;;;;;;;21.56;84.36;101378.78;5093246;28;20052;-61
2023/09/29 10:38:30;;;;;;;7.68;3.40;;;;;;;21.61;83.82;101392.09;5093698;28;20024;-62
2023/09/29 10:40:57;;;;;;;9.48;3.42;;;;;;;21.60;83.85;101404.66;5093449;28;20024;-62
2023/09/29 10:43:23;;;;;;;7.57;3.20;;;;;;;21.58;84.20;101401.13;5093501;28;20031;-61
2023/09/29 10:45:50;;;;;;;7.57;3.05;;;;;;;21.57;83.99;101403.84;5092332;28;20035;-61
2023/09/29 10:48:19;;;;;;;7.82;3.22;;;;;;;21.53;84.25;101405.75;5093032;28;20031;-63
2023/09/29 10:50:49;;;;;;;8.38;3.25;;;;;;;21.53;84.94;101397.66;5093142;28;20473;-61
2023/09/29 10:53:16;;;;;;;8.63;3.50;;;;;;;21.56;85.02;101402.97;5093381;28;20040;-59
2023/09/29 10:55:47;;;;;;;6.30;3.20;;;;;;;21.54;85.00;101410.22;5092968;28;20024;-61
2023/09/29 10:58:13;;;;;;;8.80;3.28;;;;;;;21.53;85.13;101416.50;5091724;28;20477;-61
2023/09/29 11:00:49;;;;;;;7.57;3.10;;;;;;;21.53;84.22;101426.38;5092995;28;20368;-60
2023/09/29 11:03:16;;;;;;;9.02;3.10;;;;;;;21.50;85.17;101425.53;5093119;28;20028;-61
2023/09/29 11:05:55;;;;;;;8.40;3.28;;;;;;;21.53;84.78;101432.63;5092799;28;20024;-61
2023/09/29 11:08:30;;;;;;;7.55;3.25;;;;;;;21.56;85.17;101429.00;5093026;28;20077;-60
2023/09/29 11:11:00;;;;;;;10.98;3.55;;;;;;;21.56;84.99;101431.69;5092795;28;20034;-61
2023/09/29 11:13:27;;;;;;;11.27;3.35;;;;;;;21.80;84.88;101432.84;5092719;28;20020;-61
2023/09/29 11:15:54;;;;;;;8.30;3.20;;;;;;;21.90;84.53;101427.19;5092607;28;20036;-61
2023/09/29 11:18:26;;;;;;;10.93;3.47;;;;;;;21.93;84.33;101434.31;5092628;28;20032;-59
2023/09/29 11:20:56;;;;;;;8.55;3.00;;;;;;;21.98;83.29;101427.84;5092925;28;20038;-60
2023/09/29 11:23:22;;;;;;;7.38;3.13;;;;;;;22.14;82.47;101428.38;5092575;28;20028;-61